sensor_id;sensor_type;location;lat;lon;timestamp;temperature;humidity
27823;DHT22;29019;47.630;8.262;2023-07-29T00:03:36;23.80;61.70
27823;DHT22;29019;47.630;8.262;2023-07-29T00:07:37;23.80;61.80
27823;DHT22;29019;47.630;8.262;2023-07-29T00:11:37;23.80;61.80
27823;DHT22;29019;47.630;8.262;2023-07-29T00:15:38;23.80;61.80
27823;DHT22;29019;47.630;8.262;2023-07-29T00:19:38;23.80;61.70
27823;DHT22;29019;47.630;8.262;2023-07-29T00:23:39;23.80;61.80
27823;DHT22;29019;47.630;8.262;2023-07-29T00:27:39;23.80;61.80
27823;DHT22;29019;47.630;8.262;2023-07-29T00:31:40;23.70;61.90
27823;DHT22;29019;47.630;8.262;2023-07-29T00:35:40;23.80;62.10
27823;DHT22;29019;47.630;8.262;2023-07-29T00:39:41;23.80;61.80
27823;DHT22;29019;47.630;8.262;2023-07-29T00:43:41;23.80;61.90
27823;DHT22;29019;47.630;8.262;2023-07-29T00:47:42;23.80;61.80
27823;DHT22;29019;47.630;8.262;2023-07-29T00:51:43;23.80;61.70
27823;DHT22;29019;47.630;8.262;2023-07-29T00:55:43;23.80;61.70
27823;DHT22;29019;47.630;8.262;2023-07-29T00:59:44;23.80;61.70
27823;DHT22;29019;47.630;8.262;2023-07-29T01:03:44;23.80;61.70
27823;DHT22;29019;47.630;8.262;2023-07-29T01:12:25;23.80;61.60
27823;DHT22;29019;47.630;8.262;2023-07-29T01:16:31;23.80;61.50
27823;DHT22;29019;47.630;8.262;2023-07-29T01:20:33;23.80;61.70
27823;DHT22;29019;47.630;8.262;2023-07-29T01:24:34;23.80;61.60
27823;DHT22;29019;47.630;8.262;2023-07-29T01:28:34;23.80;61.50
27823;DHT22;29019;47.630;8.262;2023-07-29T01:32:43;23.80;61.50
27823;DHT22;29019;47.630;8.262;2023-07-29T01:36:44;23.80;61.60
27823;DHT22;29019;47.630;8.262;2023-07-29T01:40:46;23.80;61.50
27823;DHT22;29019;47.630;8.262;2023-07-29T01:44:48;23.80;61.60
27823;DHT22;29019;47.630;8.262;2023-07-29T01:48:48;23.80;61.50
27823;DHT22;29019;47.630;8.262;2023-07-29T01:52:49;23.80;61.70
27823;DHT22;29019;47.630;8.262;2023-07-29T01:56:50;23.80;61.50
27823;DHT22;29019;47.630;8.262;2023-07-29T02:00:51;23.80;61.70
27823;DHT22;29019;47.630;8.262;2023-07-29T02:04:52;23.80;61.80
27823;DHT22;29019;47.630;8.262;2023-07-29T02:08:54;23.80;62.00
27823;DHT22;29019;47.630;8.262;2023-07-29T02:12:54;23.80;61.80
27823;DHT22;29019;47.630;8.262;2023-07-29T02:16:55;23.80;61.80
27823;DHT22;29019;47.630;8.262;2023-07-29T02:20:55;23.80;61.70
27823;DHT22;29019;47.630;8.262;2023-07-29T02:24:56;23.80;61.80
27823;DHT22;29019;47.630;8.262;2023-07-29T02:28:56;23.80;61.80
27823;DHT22;29019;47.630;8.262;2023-07-29T02:32:57;23.80;62.00
27823;DHT22;29019;47.630;8.262;2023-07-29T02:36:57;23.80;61.60
27823;DHT22;29019;47.630;8.262;2023-07-29T02:40:58;23.80;61.80
27823;DHT22;29019;47.630;8.262;2023-07-29T02:44:58;23.80;61.70
27823;DHT22;29019;47.630;8.262;2023-07-29T02:48:59;23.80;61.70
27823;DHT22;29019;47.630;8.262;2023-07-29T02:52:59;23.80;61.60
27823;DHT22;29019;47.630;8.262;2023-07-29T02:57:01;23.80;61.80
27823;DHT22;29019;47.630;8.262;2023-07-29T03:01:02;23.80;62.30
27823;DHT22;29019;47.630;8.262;2023-07-29T03:05:03;23.80;62.30
27823;DHT22;29019;47.630;8.262;2023-07-29T03:09:04;23.80;62.10
27823;DHT22;29019;47.630;8.262;2023-07-29T03:13:05;23.90;62.50
27823;DHT22;29019;47.630;8.262;2023-07-29T03:17:05;23.80;62.10
27823;DHT22;29019;47.630;8.262;2023-07-29T03:21:06;23.80;62.30
27823;DHT22;29019;47.630;8.262;2023-07-29T03:25:07;23.80;62.20
27823;DHT22;29019;47.630;8.262;2023-07-29T03:29:07;23.80;62.40
27823;DHT22;29019;47.630;8.262;2023-07-29T03:33:08;23.80;62.40
27823;DHT22;29019;47.630;8.262;2023-07-29T03:37:09;23.80;62.40
27823;DHT22;29019;47.630;8.262;2023-07-29T03:41:09;23.80;62.30
27823;DHT22;29019;47.630;8.262;2023-07-29T03:45:10;23.70;62.40
27823;DHT22;29019;47.630;8.262;2023-07-29T03:49:10;23.70;62.50
27823;DHT22;29019;47.630;8.262;2023-07-29T03:53:11;23.70;62.50
27823;DHT22;29019;47.630;8.262;2023-07-29T03:57:11;23.70;62.30
27823;DHT22;29019;47.630;8.262;2023-07-29T04:01:12;23.70;62.20
27823;DHT22;29019;47.630;8.262;2023-07-29T04:05:12;23.70;62.30
27823;DHT22;29019;47.630;8.262;2023-07-29T04:09:13;23.70;62.30
27823;DHT22;29019;47.630;8.262;2023-07-29T04:13:13;23.60;62.20
27823;DHT22;29019;47.630;8.262;2023-07-29T04:17:14;23.60;62.20
27823;DHT22;29019;47.630;8.262;2023-07-29T04:21:14;23.60;62.20
27823;DHT22;29019;47.630;8.262;2023-07-29T04:25:15;23.60;62.20
27823;DHT22;29019;47.630;8.262;2023-07-29T04:29:16;23.60;62.20
27823;DHT22;29019;47.630;8.262;2023-07-29T04:33:16;23.60;62.20
27823;DHT22;29019;47.630;8.262;2023-07-29T04:37:17;23.60;62.20
27823;DHT22;29019;47.630;8.262;2023-07-29T04:41:17;23.50;62.20
27823;DHT22;29019;47.630;8.262;2023-07-29T04:45:18;23.60;62.20
27823;DHT22;29019;47.630;8.262;2023-07-29T04:49:18;23.60;62.20
27823;DHT22;29019;47.630;8.262;2023-07-29T04:53:19;23.50;62.20
27823;DHT22;29019;47.630;8.262;2023-07-29T04:57:19;23.50;62.20
27823;DHT22;29019;47.630;8.262;2023-07-29T05:01:20;23.50;62.20
27823;DHT22;29019;47.630;8.262;2023-07-29T05:05:21;23.50;62.20
27823;DHT22;29019;47.630;8.262;2023-07-29T05:09:21;23.50;62.20
27823;DHT22;29019;47.630;8.262;2023-07-29T05:13:22;23.50;62.20
27823;DHT22;29019;47.630;8.262;2023-07-29T05:17:22;23.50;62.20
27823;DHT22;29019;47.630;8.262;2023-07-29T05:21:23;23.50;62.20
27823;DHT22;29019;47.630;8.262;2023-07-29T05:25:23;23.50;62.20
27823;DHT22;29019;47.630;8.262;2023-07-29T05:29:24;23.50;62.20
27823;DHT22;29019;47.630;8.262;2023-07-29T05:33:24;23.50;62.30
27823;DHT22;29019;47.630;8.262;2023-07-29T05:37:25;23.50;62.30
27823;DHT22;29019;47.630;8.262;2023-07-29T05:41:26;23.50;62.30
27823;DHT22;29019;47.630;8.262;2023-07-29T05:45:28;23.50;62.30
27823;DHT22;29019;47.630;8.262;2023-07-29T05:49:31;23.50;62.30
27823;DHT22;29019;47.630;8.262;2023-07-29T05:53:31;23.50;62.30
27823;DHT22;29019;47.630;8.262;2023-07-29T05:57:32;23.40;62.10
27823;DHT22;29019;47.630;8.262;2023-07-29T06:01:32;23.50;62.20
27823;DHT22;29019;47.630;8.262;2023-07-29T06:05:33;23.50;62.20
27823;DHT22;29019;47.630;8.262;2023-07-29T06:09:33;23.50;62.20
27823;DHT22;29019;47.630;8.262;2023-07-29T06:13:34;23.50;63.00
27823;DHT22;29019;47.630;8.262;2023-07-29T06:17:34;23.50;62.20
27823;DHT22;29019;47.630;8.262;2023-07-29T06:21:35;23.50;62.10
27823;DHT22;29019;47.630;8.262;2023-07-29T06:25:36;23.50;62.20
27823;DHT22;29019;47.630;8.262;2023-07-29T06:29:36;23.50;62.20
27823;DHT22;29019;47.630;8.262;2023-07-29T06:33:37;23.50;62.10
27823;DHT22;29019;47.630;8.262;2023-07-29T06:37:37;23.40;62.10
27823;DHT22;29019;47.630;8.262;2023-07-29T06:41:38;23.50;62.10
27823;DHT22;29019;47.630;8.262;2023-07-29T06:45:38;23.40;62.00
27823;DHT22;29019;47.630;8.262;2023-07-29T06:49:39;23.50;62.10
27823;DHT22;29019;47.630;8.262;2023-07-29T06:53:39;23.50;62.20
27823;DHT22;29019;47.630;8.262;2023-07-29T06:57:40;23.40;62.10
27823;DHT22;29019;47.630;8.262;2023-07-29T07:01:41;23.50;62.10
27823;DHT22;29019;47.630;8.262;2023-07-29T07:05:41;23.50;62.10
27823;DHT22;29019;47.630;8.262;2023-07-29T07:09:42;23.40;62.10
27823;DHT22;29019;47.630;8.262;2023-07-29T07:13:42;23.40;62.20
27823;DHT22;29019;47.630;8.262;2023-07-29T07:17:43;23.40;62.20
27823;DHT22;29019;47.630;8.262;2023-07-29T07:21:43;23.40;62.20
27823;DHT22;29019;47.630;8.262;2023-07-29T07:25:44;23.40;62.20
27823;DHT22;29019;47.630;8.262;2023-07-29T07:29:44;23.40;62.20
27823;DHT22;29019;47.630;8.262;2023-07-29T07:33:45;23.40;62.10
27823;DHT22;29019;47.630;8.262;2023-07-29T07:37:45;23.40;62.10
27823;DHT22;29019;47.630;8.262;2023-07-29T07:41:46;23.40;62.10
27823;DHT22;29019;47.630;8.262;2023-07-29T07:45:46;23.40;62.10
27823;DHT22;29019;47.630;8.262;2023-07-29T07:49:47;23.40;62.10
27823;DHT22;29019;47.630;8.262;2023-07-29T07:53:49;23.40;62.10
27823;DHT22;29019;47.630;8.262;2023-07-29T07:57:50;23.40;62.10
27823;DHT22;29019;47.630;8.262;2023-07-29T08:01:50;23.40;62.10
27823;DHT22;29019;47.630;8.262;2023-07-29T08:05:52;23.40;62.00
27823;DHT22;29019;47.630;8.262;2023-07-29T08:09:53;23.50;62.10
27823;DHT22;29019;47.630;8.262;2023-07-29T08:13:53;23.40;62.00
27823;DHT22;29019;47.630;8.262;2023-07-29T08:17:54;23.40;62.00
27823;DHT22;29019;47.630;8.262;2023-07-29T08:21:54;23.50;62.10
27823;DHT22;29019;47.630;8.262;2023-07-29T08:25:55;23.40;62.00
27823;DHT22;29019;47.630;8.262;2023-07-29T08:29:56;23.40;61.90
27823;DHT22;29019;47.630;8.262;2023-07-29T08:33:57;23.40;62.00
27823;DHT22;29019;47.630;8.262;2023-07-29T08:37:57;23.40;62.00
27823;DHT22;29019;47.630;8.262;2023-07-29T08:42:01;23.40;62.00
27823;DHT22;29019;47.630;8.262;2023-07-29T08:46:05;23.40;62.00
27823;DHT22;29019;47.630;8.262;2023-07-29T08:50:07;23.40;62.10
27823;DHT22;29019;47.630;8.262;2023-07-29T08:54:07;23.40;62.10
27823;DHT22;29019;47.630;8.262;2023-07-29T08:58:08;23.40;62.10
27823;DHT22;29019;47.630;8.262;2023-07-29T09:02:09;23.40;62.10
27823;DHT22;29019;47.630;8.262;2023-07-29T09:06:09;23.40;62.10
27823;DHT22;29019;47.630;8.262;2023-07-29T09:10:12;23.40;62.00
27823;DHT22;29019;47.630;8.262;2023-07-29T09:14:13;23.40;62.00
27823;DHT22;29019;47.630;8.262;2023-07-29T09:18:15;23.40;62.00
27823;DHT22;29019;47.630;8.262;2023-07-29T09:22:21;23.40;62.00
27823;DHT22;29019;47.630;8.262;2023-07-29T09:26:26;23.40;61.90
27823;DHT22;29019;47.630;8.262;2023-07-29T09:30:27;23.40;62.00
27823;DHT22;29019;47.630;8.262;2023-07-29T09:34:28;23.40;62.00
27823;DHT22;29019;47.630;8.262;2023-07-29T09:38:29;23.40;61.90
27823;DHT22;29019;47.630;8.262;2023-07-29T09:42:30;23.40;62.00
27823;DHT22;29019;47.630;8.262;2023-07-29T09:46:34;23.40;61.90
27823;DHT22;29019;47.630;8.262;2023-07-29T09:50:35;23.40;61.90
27823;DHT22;29019;47.630;8.262;2023-07-29T09:54:36;23.40;61.90
27823;DHT22;29019;47.630;8.262;2023-07-29T09:58:36;23.40;61.90
27823;DHT22;29019;47.630;8.262;2023-07-29T10:02:38;23.40;61.90
27823;DHT22;29019;47.630;8.262;2023-07-29T10:06:39;23.40;62.00
27823;DHT22;29019;47.630;8.262;2023-07-29T10:10:42;23.40;61.90
27823;DHT22;29019;47.630;8.262;2023-07-29T10:14:42;23.40;61.90
27823;DHT22;29019;47.630;8.262;2023-07-29T10:18:44;23.40;61.90
27823;DHT22;29019;47.630;8.262;2023-07-29T10:22:45;23.40;61.90
27823;DHT22;29019;47.630;8.262;2023-07-29T10:26:46;23.40;61.90
27823;DHT22;29019;47.630;8.262;2023-07-29T10:30:49;23.40;61.90
27823;DHT22;29019;47.630;8.262;2023-07-29T10:34:50;23.40;61.90
27823;DHT22;29019;47.630;8.262;2023-07-29T10:38:51;23.40;61.90
27823;DHT22;29019;47.630;8.262;2023-07-29T10:43:01;23.40;61.90
27823;DHT22;29019;47.630;8.262;2023-07-29T10:47:10;23.40;61.90
27823;DHT22;29019;47.630;8.262;2023-07-29T10:55:31;23.40;61.90
27823;DHT22;29019;47.630;8.262;2023-07-29T10:59:32;23.40;61.90
27823;DHT22;29019;47.630;8.262;2023-07-29T11:03:34;23.40;61.80
27823;DHT22;29019;47.630;8.262;2023-07-29T11:07:52;23.40;61.80
27823;DHT22;29019;47.630;8.262;2023-07-29T11:11:53;23.40;61.80
27823;DHT22;29019;47.630;8.262;2023-07-29T11:15:54;23.40;61.80
27823;DHT22;29019;47.630;8.262;2023-07-29T11:19:55;23.40;61.80
27823;DHT22;29019;47.630;8.262;2023-07-29T11:23:58;23.40;61.80
27823;DHT22;29019;47.630;8.262;2023-07-29T11:27:59;23.50;61.80
27823;DHT22;29019;47.630;8.262;2023-07-29T11:32:00;23.40;61.70
27823;DHT22;29019;47.630;8.262;2023-07-29T11:36:00;23.50;61.80
27823;DHT22;29019;47.630;8.262;2023-07-29T11:40:01;23.50;61.70
27823;DHT22;29019;47.630;8.262;2023-07-29T11:44:02;23.50;61.70
27823;DHT22;29019;47.630;8.262;2023-07-29T11:48:03;23.50;61.70
27823;DHT22;29019;47.630;8.262;2023-07-29T11:52:05;23.50;61.70
27823;DHT22;29019;47.630;8.262;2023-07-29T11:56:06;23.50;61.70
27823;DHT22;29019;47.630;8.262;2023-07-29T12:00:07;23.50;61.70
27823;DHT22;29019;47.630;8.262;2023-07-29T12:04:10;23.50;61.60
27823;DHT22;29019;47.630;8.262;2023-07-29T12:08:10;23.50;61.60
27823;DHT22;29019;47.630;8.262;2023-07-29T12:12:11;23.50;61.70
27823;DHT22;29019;47.630;8.262;2023-07-29T12:16:15;23.50;61.60
27823;DHT22;29019;47.630;8.262;2023-07-29T12:20:16;23.50;61.60
27823;DHT22;29019;47.630;8.262;2023-07-29T12:24:21;23.50;61.60
27823;DHT22;29019;47.630;8.262;2023-07-29T12:28:22;23.50;61.50
27823;DHT22;29019;47.630;8.262;2023-07-29T12:32:24;23.50;61.60
27823;DHT22;29019;47.630;8.262;2023-07-29T12:36:44;23.50;61.50
27823;DHT22;29019;47.630;8.262;2023-07-29T12:40:45;23.50;61.50
27823;DHT22;29019;47.630;8.262;2023-07-29T12:44:45;23.50;61.50
27823;DHT22;29019;47.630;8.262;2023-07-29T12:48:46;23.50;61.50
27823;DHT22;29019;47.630;8.262;2023-07-29T12:52:46;23.50;61.50
27823;DHT22;29019;47.630;8.262;2023-07-29T12:56:47;23.50;61.50
27823;DHT22;29019;47.630;8.262;2023-07-29T13:00:47;23.50;61.50
27823;DHT22;29019;47.630;8.262;2023-07-29T13:04:48;23.50;61.50
27823;DHT22;29019;47.630;8.262;2023-07-29T13:08:48;23.50;61.50
27823;DHT22;29019;47.630;8.262;2023-07-29T13:12:49;23.50;61.50
27823;DHT22;29019;47.630;8.262;2023-07-29T13:16:50;23.50;61.50
27823;DHT22;29019;47.630;8.262;2023-07-29T13:20:50;23.50;61.50
27823;DHT22;29019;47.630;8.262;2023-07-29T13:24:51;23.50;61.40
27823;DHT22;29019;47.630;8.262;2023-07-29T13:28:51;23.50;61.50
27823;DHT22;29019;47.630;8.262;2023-07-29T13:32:52;23.50;61.50
27823;DHT22;29019;47.630;8.262;2023-07-29T13:36:52;23.50;61.50
27823;DHT22;29019;47.630;8.262;2023-07-29T13:40:53;23.50;61.50
27823;DHT22;29019;47.630;8.262;2023-07-29T13:44:53;23.50;61.50
27823;DHT22;29019;47.630;8.262;2023-07-29T13:48:54;23.50;61.50
27823;DHT22;29019;47.630;8.262;2023-07-29T13:52:54;23.50;61.60
27823;DHT22;29019;47.630;8.262;2023-07-29T13:56:55;23.50;61.60
27823;DHT22;29019;47.630;8.262;2023-07-29T14:00:56;23.50;61.50
27823;DHT22;29019;47.630;8.262;2023-07-29T14:04:56;23.50;61.60
27823;DHT22;29019;47.630;8.262;2023-07-29T14:08:57;23.50;61.50
27823;DHT22;29019;47.630;8.262;2023-07-29T14:12:57;23.50;61.50
27823;DHT22;29019;47.630;8.262;2023-07-29T14:16:58;23.50;61.50
27823;DHT22;29019;47.630;8.262;2023-07-29T14:20:58;23.50;61.50
27823;DHT22;29019;47.630;8.262;2023-07-29T14:24:59;23.50;61.50
27823;DHT22;29019;47.630;8.262;2023-07-29T14:28:59;23.50;61.50
27823;DHT22;29019;47.630;8.262;2023-07-29T14:33:00;23.50;61.50
27823;DHT22;29019;47.630;8.262;2023-07-29T14:37:01;23.50;61.50
27823;DHT22;29019;47.630;8.262;2023-07-29T14:41:01;23.50;61.50
27823;DHT22;29019;47.630;8.262;2023-07-29T14:45:02;23.50;61.40
27823;DHT22;29019;47.630;8.262;2023-07-29T14:49:02;23.50;61.40
27823;DHT22;29019;47.630;8.262;2023-07-29T14:53:03;23.50;61.40
27823;DHT22;29019;47.630;8.262;2023-07-29T14:57:06;23.50;61.40
27823;DHT22;29019;47.630;8.262;2023-07-29T15:01:06;23.50;61.40
27823;DHT22;29019;47.630;8.262;2023-07-29T15:05:07;23.50;61.40
27823;DHT22;29019;47.630;8.262;2023-07-29T15:09:08;23.50;61.40
27823;DHT22;29019;47.630;8.262;2023-07-29T15:13:08;23.50;61.40
27823;DHT22;29019;47.630;8.262;2023-07-29T15:17:09;23.50;61.40
27823;DHT22;29019;47.630;8.262;2023-07-29T15:21:09;23.50;61.40
27823;DHT22;29019;47.630;8.262;2023-07-29T15:25:10;23.50;61.40
27823;DHT22;29019;47.630;8.262;2023-07-29T15:29:10;23.50;61.40
27823;DHT22;29019;47.630;8.262;2023-07-29T15:33:11;23.50;61.50
27823;DHT22;29019;47.630;8.262;2023-07-29T15:37:11;23.50;61.50
27823;DHT22;29019;47.630;8.262;2023-07-29T15:41:12;23.50;61.50
27823;DHT22;29019;47.630;8.262;2023-07-29T15:45:12;23.50;61.50
27823;DHT22;29019;47.630;8.262;2023-07-29T15:49:13;23.50;61.50
27823;DHT22;29019;47.630;8.262;2023-07-29T15:53:14;23.50;61.40
27823;DHT22;29019;47.630;8.262;2023-07-29T15:57:14;23.50;61.50
27823;DHT22;29019;47.630;8.262;2023-07-29T16:01:15;23.50;61.40
27823;DHT22;29019;47.630;8.262;2023-07-29T16:05:15;23.50;61.40
27823;DHT22;29019;47.630;8.262;2023-07-29T16:09:16;23.50;61.30
27823;DHT22;29019;47.630;8.262;2023-07-29T16:13:21;23.50;61.40
27823;DHT22;29019;47.630;8.262;2023-07-29T16:17:21;23.50;61.30
27823;DHT22;29019;47.630;8.262;2023-07-29T16:21:22;23.50;61.30
27823;DHT22;29019;47.630;8.262;2023-07-29T16:25:22;23.50;61.30
27823;DHT22;29019;47.630;8.262;2023-07-29T16:29:23;23.50;61.30
27823;DHT22;29019;47.630;8.262;2023-07-29T16:33:23;23.50;61.30
27823;DHT22;29019;47.630;8.262;2023-07-29T16:37:24;23.50;61.30
27823;DHT22;29019;47.630;8.262;2023-07-29T16:41:24;23.50;61.30
27823;DHT22;29019;47.630;8.262;2023-07-29T16:45:25;23.50;61.30
27823;DHT22;29019;47.630;8.262;2023-07-29T16:49:27;23.50;61.30
27823;DHT22;29019;47.630;8.262;2023-07-29T16:53:28;23.50;61.30
27823;DHT22;29019;47.630;8.262;2023-07-29T16:57:28;23.50;61.30
27823;DHT22;29019;47.630;8.262;2023-07-29T17:01:29;23.50;61.30
27823;DHT22;29019;47.630;8.262;2023-07-29T17:05:29;23.50;61.30
27823;DHT22;29019;47.630;8.262;2023-07-29T17:09:30;23.50;61.30
27823;DHT22;29019;47.630;8.262;2023-07-29T17:13:30;23.50;61.40
27823;DHT22;29019;47.630;8.262;2023-07-29T17:17:31;23.50;61.40
27823;DHT22;29019;47.630;8.262;2023-07-29T17:21:31;23.50;61.40
27823;DHT22;29019;47.630;8.262;2023-07-29T17:25:32;23.50;61.40
27823;DHT22;29019;47.630;8.262;2023-07-29T17:29:32;23.50;61.40
27823;DHT22;29019;47.630;8.262;2023-07-29T17:33:33;23.50;61.40
27823;DHT22;29019;47.630;8.262;2023-07-29T17:37:34;23.50;61.40
27823;DHT22;29019;47.630;8.262;2023-07-29T17:41:35;23.50;61.40
27823;DHT22;29019;47.630;8.262;2023-07-29T17:45:36;23.50;61.30
27823;DHT22;29019;47.630;8.262;2023-07-29T17:49:37;23.50;61.30
27823;DHT22;29019;47.630;8.262;2023-07-29T17:53:38;23.50;61.30
27823;DHT22;29019;47.630;8.262;2023-07-29T17:57:39;23.50;61.30
27823;DHT22;29019;47.630;8.262;2023-07-29T18:01:39;23.50;61.30
27823;DHT22;29019;47.630;8.262;2023-07-29T18:05:40;23.50;61.30
27823;DHT22;29019;47.630;8.262;2023-07-29T18:09:40;23.50;61.30
27823;DHT22;29019;47.630;8.262;2023-07-29T18:13:41;23.50;61.30
27823;DHT22;29019;47.630;8.262;2023-07-29T18:17:42;23.50;61.40
27823;DHT22;29019;47.630;8.262;2023-07-29T18:21:42;23.50;61.30
27823;DHT22;29019;47.630;8.262;2023-07-29T18:25:43;23.50;61.30
27823;DHT22;29019;47.630;8.262;2023-07-29T18:29:43;23.50;61.30
27823;DHT22;29019;47.630;8.262;2023-07-29T18:33:44;23.50;61.30
27823;DHT22;29019;47.630;8.262;2023-07-29T18:37:45;23.50;61.30
27823;DHT22;29019;47.630;8.262;2023-07-29T18:41:46;23.50;62.10
27823;DHT22;29019;47.630;8.262;2023-07-29T18:45:46;23.50;61.30
27823;DHT22;29019;47.630;8.262;2023-07-29T18:49:47;23.50;61.30
27823;DHT22;29019;47.630;8.262;2023-07-29T18:53:47;23.50;61.40
27823;DHT22;29019;47.630;8.262;2023-07-29T18:57:48;23.50;61.40
27823;DHT22;29019;47.630;8.262;2023-07-29T19:01:48;23.50;62.20
27823;DHT22;29019;47.630;8.262;2023-07-29T19:05:53;23.50;62.00
27823;DHT22;29019;47.630;8.262;2023-07-29T19:09:54;23.50;62.00
27823;DHT22;29019;47.630;8.262;2023-07-29T19:13:57;23.50;62.20
27823;DHT22;29019;47.630;8.262;2023-07-29T19:17:59;23.60;62.30
27823;DHT22;29019;47.630;8.262;2023-07-29T19:21:59;23.60;62.60
27823;DHT22;29019;47.630;8.262;2023-07-29T19:26:00;23.60;62.40
27823;DHT22;29019;47.630;8.262;2023-07-29T19:30:00;23.60;62.30
27823;DHT22;29019;47.630;8.262;2023-07-29T19:34:01;23.70;62.50
27823;DHT22;29019;47.630;8.262;2023-07-29T19:38:01;23.70;63.00
27823;DHT22;29019;47.630;8.262;2023-07-29T19:42:02;23.70;62.40
27823;DHT22;29019;47.630;8.262;2023-07-29T19:46:03;23.70;62.30
27823;DHT22;29019;47.630;8.262;2023-07-29T19:50:04;23.80;62.30
27823;DHT22;29019;47.630;8.262;2023-07-29T19:54:05;23.80;62.30
27823;DHT22;29019;47.630;8.262;2023-07-29T19:58:05;23.80;62.20
27823;DHT22;29019;47.630;8.262;2023-07-29T20:02:06;23.80;62.30
27823;DHT22;29019;47.630;8.262;2023-07-29T20:06:06;23.80;62.30
27823;DHT22;29019;47.630;8.262;2023-07-29T20:10:07;23.80;62.40
27823;DHT22;29019;47.630;8.262;2023-07-29T20:14:08;23.80;62.30
27823;DHT22;29019;47.630;8.262;2023-07-29T20:18:08;23.80;62.00
27823;DHT22;29019;47.630;8.262;2023-07-29T20:22:09;23.80;61.90
27823;DHT22;29019;47.630;8.262;2023-07-29T20:26:09;23.80;61.90
27823;DHT22;29019;47.630;8.262;2023-07-29T20:30:10;23.80;61.80
27823;DHT22;29019;47.630;8.262;2023-07-29T20:34:10;23.80;62.00
27823;DHT22;29019;47.630;8.262;2023-07-29T20:38:11;23.80;62.10
27823;DHT22;29019;47.630;8.262;2023-07-29T20:42:12;23.80;62.10
27823;DHT22;29019;47.630;8.262;2023-07-29T20:46:20;23.80;62.30
27823;DHT22;29019;47.630;8.262;2023-07-29T20:50:21;23.80;62.60
27823;DHT22;29019;47.630;8.262;2023-07-29T20:54:21;23.80;62.60
27823;DHT22;29019;47.630;8.262;2023-07-29T20:58:22;23.80;62.30
27823;DHT22;29019;47.630;8.262;2023-07-29T21:02:22;23.80;62.50
27823;DHT22;29019;47.630;8.262;2023-07-29T21:06:23;23.80;62.40
27823;DHT22;29019;47.630;8.262;2023-07-29T21:10:23;23.80;62.20
27823;DHT22;29019;47.630;8.262;2023-07-29T21:14:24;23.80;62.10
27823;DHT22;29019;47.630;8.262;2023-07-29T21:18:25;23.80;62.40
27823;DHT22;29019;47.630;8.262;2023-07-29T21:22:25;23.80;62.20
27823;DHT22;29019;47.630;8.262;2023-07-29T21:26:26;23.90;62.00
27823;DHT22;29019;47.630;8.262;2023-07-29T21:30:29;23.90;62.10
27823;DHT22;29019;47.630;8.262;2023-07-29T21:34:29;23.90;62.30
27823;DHT22;29019;47.630;8.262;2023-07-29T21:38:30;23.90;62.50
27823;DHT22;29019;47.630;8.262;2023-07-29T21:42:30;23.90;62.20
27823;DHT22;29019;47.630;8.262;2023-07-29T21:46:32;23.80;62.40
27823;DHT22;29019;47.630;8.262;2023-07-29T21:50:32;23.90;62.50
27823;DHT22;29019;47.630;8.262;2023-07-29T21:54:33;23.90;62.30
27823;DHT22;29019;47.630;8.262;2023-07-29T21:58:33;23.90;62.20
27823;DHT22;29019;47.630;8.262;2023-07-29T22:02:34;23.90;62.20
27823;DHT22;29019;47.630;8.262;2023-07-29T22:06:34;23.90;62.00
27823;DHT22;29019;47.630;8.262;2023-07-29T22:10:38;23.90;61.90
27823;DHT22;29019;47.630;8.262;2023-07-29T22:14:39;23.90;61.70
27823;DHT22;29019;47.630;8.262;2023-07-29T22:18:40;23.90;62.00
27823;DHT22;29019;47.630;8.262;2023-07-29T22:22:41;23.90;61.90
27823;DHT22;29019;47.630;8.262;2023-07-29T22:26:41;23.90;62.20
27823;DHT22;29019;47.630;8.262;2023-07-29T22:30:43;23.90;62.20
27823;DHT22;29019;47.630;8.262;2023-07-29T22:34:44;23.90;62.50
27823;DHT22;29019;47.630;8.262;2023-07-29T22:38:44;23.90;62.20
27823;DHT22;29019;47.630;8.262;2023-07-29T22:42:45;23.90;62.20
27823;DHT22;29019;47.630;8.262;2023-07-29T22:46:46;23.90;62.40
27823;DHT22;29019;47.630;8.262;2023-07-29T22:50:47;23.90;62.20
27823;DHT22;29019;47.630;8.262;2023-07-29T22:54:47;23.90;62.40
27823;DHT22;29019;47.630;8.262;2023-07-29T22:58:48;23.90;62.10
27823;DHT22;29019;47.630;8.262;2023-07-29T23:02:48;23.90;62.20
27823;DHT22;29019;47.630;8.262;2023-07-29T23:06:49;23.90;62.10
27823;DHT22;29019;47.630;8.262;2023-07-29T23:10:49;23.90;62.10
27823;DHT22;29019;47.630;8.262;2023-07-29T23:14:50;23.90;62.20
27823;DHT22;29019;47.630;8.262;2023-07-29T23:18:50;23.90;62.10
27823;DHT22;29019;47.630;8.262;2023-07-29T23:22:51;23.90;62.10
27823;DHT22;29019;47.630;8.262;2023-07-29T23:26:51;23.90;62.80
27823;DHT22;29019;47.630;8.262;2023-07-29T23:30:55;23.90;63.10
27823;DHT22;29019;47.630;8.262;2023-07-29T23:34:57;23.90;63.00
27823;DHT22;29019;47.630;8.262;2023-07-29T23:38:57;23.90;63.10
27823;DHT22;29019;47.630;8.262;2023-07-29T23:42:58;23.90;63.30
27823;DHT22;29019;47.630;8.262;2023-07-29T23:46:58;23.90;63.40
27823;DHT22;29019;47.630;8.262;2023-07-29T23:50:59;23.90;62.60
27823;DHT22;29019;47.630;8.262;2023-07-29T23:55:00;23.80;62.50
27823;DHT22;29019;47.630;8.262;2023-07-29T23:59:01;23.80;62.50
